LSGM7: Little Sugar Creek nr Pineville 7SW

Data processed at Wed May 22 2019 23:50


All information presented herein is the property of the government of the United States of America and may be revised or deleted at any time without prior notice.
Dissemination of this information without the expressed written consent of the Public Affairs Office, Tulsa District U.S. Army Corps of Engineers is strictly prohibited.
These data are gathered electronically and, as presented, have not undergone any form of quality control. These data are not guaranteed to be valid or correct.
Go to home page.
Go to station list.
Go to home page.

Downstream station:


Previous Day
Next Day
Current Day
    
SHEF ID:       LSGM7     Little Sugar Creek near Pinevill
STATION TYPE:  

               PRECIP     STAGE  STAGE(2)  RIV-FLOW   VOLTAGE
                   in        ft        ft       cfs      volt
              Ccp-Rev   Ccp-Rev   Ccp-Rev   Ccp-Rev   Ccp-Rev
(US/Central)
05/22 00:00      0.00     10.29     10.21      4550     12.71
05/22 01:00      0.00      9.98      9.88      4248     12.71
05/22 02:00      0.00      9.68      9.61      3966     12.71
05/22 03:00      0.00      9.35      9.29      3667     12.71
05/22 04:00      0.00      9.03      8.95      3388     12.47
05/22 05:00      0.00      8.68      8.62      3095     12.47
05/22 06:00      0.00      8.44      8.34      2902     12.47
05/22 07:00      0.00      8.19      8.09      2702     12.47
05/22 08:00      0.00      7.96      7.88      2518     12.94
05/22 09:00      0.00      7.77      7.67      2369     12.94
05/22 10:00      0.00      7.63      7.51      2272     13.17
05/22 11:00      0.00      7.45      7.36      2139     13.17
05/22 12:00      0.00      7.32      7.24      2041     13.17
05/22 13:00      0.00      7.23      7.13      1975     13.41
05/22 14:00      0.00      7.12      7.00      1897     13.41
05/22 15:00      0.00      6.96      6.88      1793     13.88
05/22 16:00      0.00      6.85      6.76      1723     13.17
05/22 17:00      0.00      6.76      6.66      1667     13.17
05/22 18:00      0.00      6.66      6.58      1604     12.94
05/22 19:00      0.00      6.55      6.47      1529     12.71
05/22 20:00      0.00      6.48      6.39      1484     12.71
05/22 21:00      0.00      6.42      6.33      1449     12.71
05/22 22:00      0.02      6.35      6.25      1409     12.71
05/22 23:00      0.01      6.27      6.19      1364     12.71